This is the latest recevied weather packets stored in our database for station/object VY2CRA-4. If no packets are shown the sender has not sent any weather packets the latest 10 day(s).
| Time | Temp. | Humidity | Pressure | Rain* | Wind** | Luminosity | Snow |
|---|---|---|---|---|---|---|---|
| 1787754028 | 31.67° C | 24% | 1009.9 hPa | 0 mm | - | - | - |
| 1787751625 | 29.44° C | 29% | 1010 hPa | 0 mm | - | - | - |
| 1787750424 | 29.44° C | 30% | 1009.9 hPa | 0 mm | - | - | - |
| 1787748022 | 28.33° C | 31% | 1009.8 hPa | 0 mm | - | - | - |
| 1787746821 | 28.89° C | 29% | 1009.6 hPa | 0 mm | - | - | - |
| 1787745621 | 30° C | 25% | 1009.7 hPa | 0 mm | - | - | - |
| 1787744420 | 31.11° C | 24% | 1009.5 hPa | 0 mm | - | - | - |
| 1787743219 | 29.44° C | 31% | 1009.4 hPa | 0 mm | - | - | - |
| 1787742018 | 26.67° C | 42% | 1009.3 hPa | 0 mm | - | - | - |
| 1787740817 | 23.33° C | 51% | 1009.3 hPa | 0 mm | - | - | - |
| 1787739616 | 21.67° C | 49% | 1009.3 hPa | 0 mm | - | - | - |
| 1787738415 | 21.67° C | 49% | 1009.1 hPa | 0 mm | - | - | - |
| 1787737214 | 21.67° C | 49% | 1009.1 hPa | 0 mm | - | - | - |
| 1787736013 | 21.67° C | 49% | 1008.9 hPa | 0 mm | - | - | - |
| 1787734812 | 21.67° C | 49% | 1008.7 hPa | 0 mm | - | - | - |
| 1787733611 | 21.67° C | 49% | 1008.5 hPa | 0 mm | - | - | - |
| 1787732410 | 21.67° C | 48% | 1008.4 hPa | 0 mm | - | - | - |
| 1787731209 | 21.67° C | 48% | 1008.2 hPa | 0 mm | - | - | - |
| 1787730008 | 22.22° C | 48% | 1008.3 hPa | 0 mm | - | - | - |
| 1787728807 | 22.22° C | 48% | 1008.2 hPa | 0 mm | - | - | - |
| 1787727607 | 22.22° C | 48% | 1008.3 hPa | 0 mm | - | - | - |
| 1787726407 | 22.22° C | 47% | 1008.2 hPa | 0 mm | - | - | - |
| 1787725205 | 22.22° C | 47% | 1008.4 hPa | 0 mm | - | - | - |
| 1787724004 | 22.22° C | 47% | 1008.3 hPa | 0 mm | - | - | - |
| 1787722803 | 22.22° C | 46% | 1008.4 hPa | 0 mm | - | - | - |
* Rain since midnight (hover to see other rain measurements)
** Current wind speed in m/s (hover to see current wind gust speed)